sensor_id;sensor_type;location;lat;lon;timestamp;temperature;humidity
12370;DHT22;6249;52.128;9.986;2023-08-31T00:02:52;13.90;99.90
12370;DHT22;6249;52.128;9.986;2023-08-31T00:12:53;13.70;99.90
12370;DHT22;6249;52.128;9.986;2023-08-31T00:22:56;13.40;99.90
12370;DHT22;6249;52.128;9.986;2023-08-31T00:32:59;13.50;99.90
12370;DHT22;6249;52.128;9.986;2023-08-31T00:43:00;13.30;99.90
12370;DHT22;6249;52.128;9.986;2023-08-31T00:53:01;13.20;99.90
12370;DHT22;6249;52.128;9.986;2023-08-31T01:03:12;13.10;99.90
12370;DHT22;6249;52.128;9.986;2023-08-31T01:13:21;13.00;99.90
12370;DHT22;6249;52.128;9.986;2023-08-31T01:33:36;12.70;99.90
12370;DHT22;6249;52.128;9.986;2023-08-31T01:43:40;12.70;99.90
12370;DHT22;6249;52.128;9.986;2023-08-31T01:53:43;12.60;99.90
12370;DHT22;6249;52.128;9.986;2023-08-31T02:03:44;12.50;99.90
12370;DHT22;6249;52.128;9.986;2023-08-31T02:13:47;12.50;99.90
12370;DHT22;6249;52.128;9.986;2023-08-31T02:23:48;12.50;99.90
12370;DHT22;6249;52.128;9.986;2023-08-31T02:33:51;12.50;99.90
12370;DHT22;6249;52.128;9.986;2023-08-31T02:43:55;12.50;99.90
12370;DHT22;6249;52.128;9.986;2023-08-31T02:53:56;12.30;99.90
12370;DHT22;6249;52.128;9.986;2023-08-31T03:03:57;12.30;99.90
12370;DHT22;6249;52.128;9.986;2023-08-31T03:13:58;12.10;99.90
12370;DHT22;6249;52.128;9.986;2023-08-31T03:23:59;12.10;99.90
12370;DHT22;6249;52.128;9.986;2023-08-31T03:34:00;12.10;99.90
12370;DHT22;6249;52.128;9.986;2023-08-31T03:44:03;12.00;99.90
12370;DHT22;6249;52.128;9.986;2023-08-31T03:54:06;12.00;99.90
12370;DHT22;6249;52.128;9.986;2023-08-31T04:04:07;12.00;99.90
12370;DHT22;6249;52.128;9.986;2023-08-31T04:14:07;12.00;99.90
12370;DHT22;6249;52.128;9.986;2023-08-31T04:24:12;11.80;99.90
12370;DHT22;6249;52.128;9.986;2023-08-31T04:34:13;11.90;99.90
12370;DHT22;6249;52.128;9.986;2023-08-31T04:44:14;11.70;99.90
12370;DHT22;6249;52.128;9.986;2023-08-31T04:54:17;12.00;99.90
12370;DHT22;6249;52.128;9.986;2023-08-31T05:04:17;11.90;99.90
12370;DHT22;6249;52.128;9.986;2023-08-31T05:14:18;12.00;99.90
12370;DHT22;6249;52.128;9.986;2023-08-31T05:24:18;12.30;99.90
12370;DHT22;6249;52.128;9.986;2023-08-31T05:34:22;12.40;99.90
12370;DHT22;6249;52.128;9.986;2023-08-31T05:44:25;12.70;99.90
12370;DHT22;6249;52.128;9.986;2023-08-31T05:54:28;12.90;99.90
12370;DHT22;6249;52.128;9.986;2023-08-31T06:04:31;13.40;99.90
12370;DHT22;6249;52.128;9.986;2023-08-31T06:14:34;13.10;99.90
12370;DHT22;6249;52.128;9.986;2023-08-31T06:24:35;13.30;99.90
12370;DHT22;6249;52.128;9.986;2023-08-31T06:34:37;13.40;99.90
12370;DHT22;6249;52.128;9.986;2023-08-31T06:44:37;13.80;99.90
12370;DHT22;6249;52.128;9.986;2023-08-31T06:54:40;14.00;99.90
12370;DHT22;6249;52.128;9.986;2023-08-31T07:04:41;14.40;99.90
12370;DHT22;6249;52.128;9.986;2023-08-31T07:14:42;14.30;99.90
12370;DHT22;6249;52.128;9.986;2023-08-31T07:24:45;14.40;99.90
12370;DHT22;6249;52.128;9.986;2023-08-31T07:34:45;14.40;99.90
12370;DHT22;6249;52.128;9.986;2023-08-31T07:44:46;14.60;99.90
12370;DHT22;6249;52.128;9.986;2023-08-31T07:54:51;14.60;99.90
12370;DHT22;6249;52.128;9.986;2023-08-31T08:04:54;15.20;99.90
12370;DHT22;6249;52.128;9.986;2023-08-31T08:14:57;15.30;99.90
12370;DHT22;6249;52.128;9.986;2023-08-31T08:25:00;15.30;99.90
12370;DHT22;6249;52.128;9.986;2023-08-31T08:35:00;15.50;99.90
12370;DHT22;6249;52.128;9.986;2023-08-31T08:45:14;15.80;99.90
12370;DHT22;6249;52.128;9.986;2023-08-31T08:55:18;15.80;99.90
12370;DHT22;6249;52.128;9.986;2023-08-31T09:05:22;16.10;99.90
12370;DHT22;6249;52.128;9.986;2023-08-31T09:15:23;16.60;99.90
12370;DHT22;6249;52.128;9.986;2023-08-31T09:25:24;16.80;99.90
12370;DHT22;6249;52.128;9.986;2023-08-31T09:35:26;16.80;99.90
12370;DHT22;6249;52.128;9.986;2023-08-31T09:45:31;16.70;99.90
12370;DHT22;6249;52.128;9.986;2023-08-31T09:55:33;16.40;99.90
12370;DHT22;6249;52.128;9.986;2023-08-31T10:05:36;16.20;99.90
12370;DHT22;6249;52.128;9.986;2023-08-31T10:15:37;16.90;99.90
12370;DHT22;6249;52.128;9.986;2023-08-31T10:35:55;15.30;99.90
12370;DHT22;6249;52.128;9.986;2023-08-31T10:46:01;16.70;99.90
12370;DHT22;6249;52.128;9.986;2023-08-31T10:56:01;18.60;99.90
12370;DHT22;6249;52.128;9.986;2023-08-31T11:06:10;19.60;99.90
12370;DHT22;6249;52.128;9.986;2023-08-31T11:16:10;19.00;99.90
12370;DHT22;6249;52.128;9.986;2023-08-31T11:26:13;18.40;99.90
12370;DHT22;6249;52.128;9.986;2023-08-31T11:36:16;17.60;99.90
12370;DHT22;6249;52.128;9.986;2023-08-31T11:46:19;20.60;99.90
12370;DHT22;6249;52.128;9.986;2023-08-31T11:56:20;23.00;99.90
12370;DHT22;6249;52.128;9.986;2023-08-31T12:06:21;21.50;99.90
12370;DHT22;6249;52.128;9.986;2023-08-31T12:16:21;19.20;99.90
12370;DHT22;6249;52.128;9.986;2023-08-31T12:26:25;22.10;99.90
12370;DHT22;6249;52.128;9.986;2023-08-31T12:36:29;23.00;98.60
12370;DHT22;6249;52.128;9.986;2023-08-31T12:46:30;21.00;99.90
12370;DHT22;6249;52.128;9.986;2023-08-31T12:56:31;19.90;99.90
12370;DHT22;6249;52.128;9.986;2023-08-31T13:06:31;21.50;99.90
12370;DHT22;6249;52.128;9.986;2023-08-31T13:16:32;21.80;99.90
12370;DHT22;6249;52.128;9.986;2023-08-31T13:26:33;22.80;98.40
12370;DHT22;6249;52.128;9.986;2023-08-31T13:36:36;23.30;98.20
12370;DHT22;6249;52.128;9.986;2023-08-31T13:46:37;23.10;96.10
12370;DHT22;6249;52.128;9.986;2023-08-31T13:56:37;19.10;99.90
12370;DHT22;6249;52.128;9.986;2023-08-31T14:06:38;18.80;99.90
12370;DHT22;6249;52.128;9.986;2023-08-31T14:16:39;20.60;99.90
12370;DHT22;6249;52.128;9.986;2023-08-31T14:26:43;22.30;99.90
12370;DHT22;6249;52.128;9.986;2023-08-31T14:36:43;21.10;99.90
12370;DHT22;6249;52.128;9.986;2023-08-31T14:46:44;21.50;99.90
12370;DHT22;6249;52.128;9.986;2023-08-31T14:56:47;21.90;99.90
12370;DHT22;6249;52.128;9.986;2023-08-31T15:06:51;20.40;99.90
12370;DHT22;6249;52.128;9.986;2023-08-31T15:16:51;19.00;99.90
12370;DHT22;6249;52.128;9.986;2023-08-31T15:26:54;18.10;99.90
12370;DHT22;6249;52.128;9.986;2023-08-31T15:36:57;17.70;99.90
12370;DHT22;6249;52.128;9.986;2023-08-31T15:47:00;16.90;99.90
12370;DHT22;6249;52.128;9.986;2023-08-31T15:57:03;16.30;99.90
12370;DHT22;6249;52.128;9.986;2023-08-31T16:07:04;16.20;99.90
12370;DHT22;6249;52.128;9.986;2023-08-31T16:17:05;16.20;99.90
12370;DHT22;6249;52.128;9.986;2023-08-31T16:27:08;16.50;99.90
12370;DHT22;6249;52.128;9.986;2023-08-31T16:37:12;17.30;99.90
12370;DHT22;6249;52.128;9.986;2023-08-31T16:47:13;17.10;99.90
12370;DHT22;6249;52.128;9.986;2023-08-31T16:57:18;17.10;99.90
12370;DHT22;6249;52.128;9.986;2023-08-31T17:07:21;17.30;99.90
12370;DHT22;6249;52.128;9.986;2023-08-31T17:17:22;17.10;99.90
12370;DHT22;6249;52.128;9.986;2023-08-31T17:27:28;17.10;99.90
12370;DHT22;6249;52.128;9.986;2023-08-31T17:37:29;16.80;99.90
12370;DHT22;6249;52.128;9.986;2023-08-31T17:47:30;16.40;99.90
12370;DHT22;6249;52.128;9.986;2023-08-31T17:57:31;16.10;99.90
12370;DHT22;6249;52.128;9.986;2023-08-31T18:07:33;15.80;99.90
12370;DHT22;6249;52.128;9.986;2023-08-31T18:17:36;15.50;99.90
12370;DHT22;6249;52.128;9.986;2023-08-31T18:27:37;15.20;99.90
12370;DHT22;6249;52.128;9.986;2023-08-31T18:37:38;15.00;99.90
12370;DHT22;6249;52.128;9.986;2023-08-31T18:47:43;14.70;99.90
12370;DHT22;6249;52.128;9.986;2023-08-31T18:57:44;14.70;99.90
12370;DHT22;6249;52.128;9.986;2023-08-31T19:07:44;14.50;99.90
12370;DHT22;6249;52.128;9.986;2023-08-31T19:17:49;14.40;99.90
12370;DHT22;6249;52.128;9.986;2023-08-31T19:27:50;14.30;99.90
12370;DHT22;6249;52.128;9.986;2023-08-31T19:37:51;14.00;99.90
12370;DHT22;6249;52.128;9.986;2023-08-31T19:47:55;13.70;99.90
12370;DHT22;6249;52.128;9.986;2023-08-31T19:58:01;13.60;99.90
12370;DHT22;6249;52.128;9.986;2023-08-31T20:08:03;13.70;99.90
12370;DHT22;6249;52.128;9.986;2023-08-31T20:18:04;13.50;99.90
12370;DHT22;6249;52.128;9.986;2023-08-31T20:28:07;13.30;99.90
12370;DHT22;6249;52.128;9.986;2023-08-31T20:38:10;13.10;99.90
12370;DHT22;6249;52.128;9.986;2023-08-31T20:48:15;13.00;99.90
12370;DHT22;6249;52.128;9.986;2023-08-31T20:58:15;13.00;99.90
12370;DHT22;6249;52.128;9.986;2023-08-31T21:08:16;13.00;99.90
12370;DHT22;6249;52.128;9.986;2023-08-31T21:18:17;12.90;99.90
12370;DHT22;6249;52.128;9.986;2023-08-31T21:28:17;12.70;99.90
12370;DHT22;6249;52.128;9.986;2023-08-31T21:38:18;12.70;99.90
12370;DHT22;6249;52.128;9.986;2023-08-31T21:48:21;12.60;99.90
12370;DHT22;6249;52.128;9.986;2023-08-31T21:58:22;12.50;99.90
12370;DHT22;6249;52.128;9.986;2023-08-31T22:08:22;12.50;99.90
12370;DHT22;6249;52.128;9.986;2023-08-31T22:18:25;12.40;99.90
12370;DHT22;6249;52.128;9.986;2023-08-31T22:28:29;12.50;99.90
12370;DHT22;6249;52.128;9.986;2023-08-31T22:38:29;12.20;99.90
12370;DHT22;6249;52.128;9.986;2023-08-31T22:48:30;12.20;99.90
12370;DHT22;6249;52.128;9.986;2023-08-31T22:58:31;12.20;99.90
12370;DHT22;6249;52.128;9.986;2023-08-31T23:08:34;12.00;99.90
12370;DHT22;6249;52.128;9.986;2023-08-31T23:18:35;11.90;99.90
12370;DHT22;6249;52.128;9.986;2023-08-31T23:28:35;11.80;99.90
12370;DHT22;6249;52.128;9.986;2023-08-31T23:38:39;11.60;99.90
12370;DHT22;6249;52.128;9.986;2023-08-31T23:48:41;11.50;99.90
12370;DHT22;6249;52.128;9.986;2023-08-31T23:58:41;11.40;99.90
